createdAt,value
2023-05-19T04:00:32.524Z,58.55
2023-05-19T04:03:17.878Z,58.96
2023-05-19T04:06:02.563Z,58.84
2023-05-19T04:08:47.372Z,58.67
2023-05-19T04:11:32.241Z,58.47
2023-05-19T04:14:17.016Z,59.00
2023-05-19T04:17:02.111Z,58.69
2023-05-19T04:19:46.932Z,58.97
2023-05-19T04:22:31.912Z,59.06
2023-05-19T04:25:16.872Z,59.46
2023-05-19T04:28:01.709Z,59.17
2023-05-19T04:30:46.715Z,58.31
2023-05-19T04:33:31.378Z,57.76
2023-05-19T04:36:16.341Z,59.79
2023-05-19T04:39:01.202Z,58.61
2023-05-19T04:41:46.095Z,58.10
2023-05-19T04:44:30.952Z,57.42
2023-05-19T04:47:15.823Z,57.70
2023-05-19T04:50:00.628Z,57.93
2023-05-19T04:52:45.687Z,57.53
2023-05-19T04:55:30.434Z,57.62
2023-05-19T04:58:15.250Z,56.55
2023-05-19T05:01:00.152Z,56.70
2023-05-19T05:03:45.057Z,57.23
2023-05-19T05:06:30.030Z,57.75
2023-05-19T05:09:14.780Z,56.75
2023-05-19T05:11:59.770Z,57.39
2023-05-19T05:14:44.631Z,56.92
2023-05-19T05:17:29.564Z,56.92
2023-05-19T05:20:14.184Z,56.45
2023-05-19T05:22:59.004Z,55.92
2023-05-19T05:25:43.863Z,55.50
2023-05-19T05:28:28.801Z,55.54
2023-05-19T05:31:13.621Z,55.23
2023-05-19T05:33:58.487Z,55.30
2023-05-19T05:36:43.253Z,54.85
2023-05-19T05:39:28.114Z,54.79
2023-05-19T05:42:13.183Z,55.17
2023-05-19T05:44:58.017Z,54.65
2023-05-19T05:47:42.766Z,56.01
2023-05-19T05:50:27.726Z,56.25
2023-05-19T05:53:12.554Z,58.02
2023-05-19T05:55:57.395Z,57.05
2023-05-19T05:58:42.260Z,57.60
2023-05-19T06:01:27.215Z,58.85
2023-05-19T06:04:12.024Z,58.80
2023-05-19T06:06:57.163Z,57.81
2023-05-19T06:09:42.090Z,56.91
2023-05-19T06:12:26.892Z,54.74
2023-05-19T06:15:11.692Z,54.29
2023-05-19T06:17:56.557Z,55.07
2023-05-19T06:20:41.319Z,54.98
2023-05-19T06:23:26.125Z,54.35
2023-05-19T06:26:10.984Z,54.28
2023-05-19T06:28:55.812Z,54.48
2023-05-19T06:31:40.872Z,53.45
2023-05-19T06:34:25.586Z,53.90
2023-05-19T06:37:10.313Z,52.35
2023-05-19T06:39:55.219Z,52.12
2023-05-19T06:42:40.098Z,52.58
2023-05-19T06:45:25.185Z,52.06
2023-05-19T06:48:10.140Z,52.68
2023-05-19T06:50:54.816Z,52.65
2023-05-19T06:53:39.571Z,51.89
2023-05-19T06:56:24.494Z,54.87
2023-05-19T06:59:09.321Z,56.64
2023-05-19T07:01:54.329Z,56.45
2023-05-19T07:04:39.171Z,55.86
2023-05-19T07:07:23.977Z,54.28
2023-05-19T07:10:08.959Z,53.52
2023-05-19T07:12:53.824Z,52.17
2023-05-19T07:15:38.920Z,52.64
2023-05-19T07:18:23.724Z,54.14
2023-05-19T07:21:08.557Z,52.81
2023-05-19T07:23:53.391Z,53.12
2023-05-19T07:26:38.328Z,52.65
2023-05-19T07:29:23.181Z,54.50
2023-05-19T07:32:08.122Z,54.56
2023-05-19T07:34:53.105Z,55.69
2023-05-19T07:37:37.967Z,52.35
2023-05-19T07:40:23.012Z,53.75
2023-05-19T07:43:07.936Z,53.50
2023-05-19T07:45:52.854Z,49.79
2023-05-19T07:48:37.567Z,49.35
2023-05-19T07:51:22.384Z,50.05
2023-05-19T07:54:07.194Z,50.79
2023-05-19T07:56:52.071Z,53.65
2023-05-19T07:59:36.983Z,54.42
2023-05-19T08:02:21.878Z,54.83
2023-05-19T08:05:06.744Z,55.88
2023-05-19T08:07:51.603Z,56.15
2023-05-19T08:10:36.464Z,58.59
2023-05-19T08:13:21.365Z,58.65
2023-05-19T08:16:06.455Z,56.18
2023-05-19T08:18:51.344Z,57.65
2023-05-19T08:21:36.269Z,59.50
2023-05-19T08:24:21.121Z,57.81
2023-05-19T08:27:05.815Z,58.26
2023-05-19T08:29:50.706Z,56.65
2023-05-19T08:32:35.472Z,59.18
2023-05-19T08:35:20.288Z,60.99
2023-05-19T08:38:05.115Z,58.09
2023-05-19T08:40:50.043Z,57.45
2023-05-19T08:43:34.927Z,55.16
2023-05-19T08:46:19.789Z,56.09
2023-05-19T08:49:04.591Z,55.24
2023-05-19T08:51:49.433Z,51.92
2023-05-19T08:54:34.433Z,54.22
2023-05-19T08:57:19.277Z,52.84
2023-05-19T09:00:04.232Z,52.81
2023-05-19T09:02:59.852Z,53.80
2023-05-19T09:05:46.143Z,55.77
2023-05-19T09:08:30.806Z,55.44
2023-05-19T09:11:15.693Z,56.21
2023-05-19T09:14:00.534Z,56.11
2023-05-19T09:16:45.461Z,53.45
2023-05-19T09:19:30.355Z,53.65
2023-05-19T09:22:15.147Z,51.47
2023-05-19T09:25:00.018Z,51.73
2023-05-19T09:27:44.913Z,51.05
2023-05-19T09:30:29.811Z,51.38
2023-05-19T09:33:14.666Z,53.64
2023-05-19T09:35:59.633Z,53.43
2023-05-19T09:38:44.408Z,50.78
2023-05-19T09:41:29.316Z,50.46
2023-05-19T09:44:14.206Z,49.76
2023-05-19T09:46:58.982Z,48.93
2023-05-19T09:49:43.852Z,47.25
2023-05-19T09:52:28.725Z,49.43
2023-05-19T09:55:13.635Z,49.42
2023-05-19T09:57:58.388Z,51.87
2023-05-19T10:00:43.274Z,50.92
2023-05-19T10:03:28.104Z,52.04
2023-05-19T10:06:12.881Z,51.56
2023-05-19T10:08:57.624Z,49.60
2023-05-19T10:11:42.631Z,47.05
2023-05-19T10:14:27.603Z,42.72
2023-05-19T10:17:12.599Z,44.10
2023-05-19T10:19:57.401Z,42.69
2023-05-19T10:22:42.328Z,42.44
2023-05-19T10:25:27.204Z,40.55
2023-05-19T10:28:12.151Z,41.77
2023-05-19T10:30:57.158Z,44.44
2023-05-19T10:33:42.021Z,47.41
2023-05-19T10:36:26.968Z,45.06
2023-05-19T10:39:11.675Z,43.89
2023-05-19T10:41:56.739Z,44.51
2023-05-19T10:44:41.581Z,43.64
2023-05-19T10:47:26.523Z,45.60
2023-05-19T10:50:11.407Z,43.75
2023-05-19T10:52:56.267Z,41.97
2023-05-19T10:55:41.276Z,42.34
2023-05-19T10:58:26.074Z,43.92
2023-05-19T11:01:11.127Z,44.17
2023-05-19T11:03:56.031Z,46.83
2023-05-19T11:06:40.784Z,46.47
2023-05-19T11:09:34.207Z,45.00
2023-05-19T11:12:25.340Z,45.45
2023-05-19T11:15:10.192Z,46.27
2023-05-19T11:17:55.035Z,46.49
2023-05-19T11:20:40.215Z,45.53
2023-05-19T11:23:24.901Z,46.84
2023-05-19T11:26:09.763Z,45.32
2023-05-19T11:28:54.450Z,42.57
2023-05-19T11:31:39.417Z,40.92
2023-05-19T11:34:24.164Z,40.26
2023-05-19T11:37:08.885Z,39.83
2023-05-19T11:39:53.702Z,42.55
2023-05-19T11:42:38.656Z,46.32
2023-05-19T11:45:23.626Z,48.42
2023-05-19T11:48:08.405Z,46.21
2023-05-19T11:50:53.471Z,48.45
2023-05-19T11:53:38.348Z,47.84
2023-05-19T11:56:23.189Z,47.10
2023-05-19T11:59:08.033Z,44.77
2023-05-19T12:01:52.959Z,46.34
2023-05-19T12:04:37.866Z,44.54
2023-05-19T12:07:22.774Z,46.46
2023-05-19T12:10:07.769Z,45.90
2023-05-19T12:12:52.637Z,46.24
2023-05-19T12:15:37.610Z,44.57
2023-05-19T12:18:22.335Z,45.53
2023-05-19T12:21:07.379Z,45.93
2023-05-19T12:23:52.199Z,44.47
2023-05-19T12:26:37.031Z,43.01
2023-05-19T12:29:21.857Z,41.79
2023-05-19T12:32:06.605Z,42.34
2023-05-19T12:34:51.610Z,40.66
2023-05-19T12:37:36.350Z,41.07
2023-05-19T12:40:21.255Z,41.43
2023-05-19T12:43:06.063Z,41.51
2023-05-19T12:45:51.018Z,41.48
2023-05-19T12:48:35.826Z,40.73
2023-05-19T12:51:20.718Z,41.95
2023-05-19T12:54:06.010Z,42.43
2023-05-19T12:56:50.844Z,41.30
2023-05-19T12:59:38.665Z,41.39
2023-05-19T13:02:23.616Z,42.51
2023-05-19T13:05:08.516Z,46.00
2023-05-19T13:07:53.335Z,46.91
2023-05-19T13:10:38.331Z,48.78
2023-05-19T13:13:23.093Z,45.81
2023-05-19T13:16:07.881Z,44.96
2023-05-19T13:18:53.918Z,46.47
2023-05-19T13:21:38.757Z,46.87
2023-05-19T13:24:23.827Z,50.60
2023-05-19T13:27:08.702Z,51.19
2023-05-19T13:29:53.630Z,51.42
2023-05-19T13:32:38.481Z,52.57
2023-05-19T13:35:23.518Z,51.02
2023-05-19T13:38:08.305Z,50.43
2023-05-19T13:40:52.985Z,48.55
2023-05-19T13:43:37.986Z,46.24
2023-05-19T13:46:29.814Z,46.71
2023-05-19T13:49:21.735Z,45.43
2023-05-19T13:52:06.550Z,49.93
2023-05-19T13:54:51.439Z,50.03
2023-05-19T13:57:36.298Z,50.91
2023-05-19T14:00:21.401Z,51.38
2023-05-19T14:03:06.394Z,53.75
2023-05-19T14:05:51.077Z,51.76
2023-05-19T14:08:35.895Z,49.41
2023-05-19T14:11:20.725Z,47.94
2023-05-19T14:14:05.562Z,48.75
2023-05-19T14:16:50.527Z,47.95
2023-05-19T14:19:35.447Z,45.65
2023-05-19T14:22:20.150Z,44.66
2023-05-19T14:25:05.037Z,43.75
2023-05-19T14:27:49.900Z,43.26
2023-05-19T14:30:34.858Z,41.17
2023-05-19T14:33:20.052Z,41.04
2023-05-19T14:36:04.873Z,42.79
2023-05-19T14:38:49.963Z,43.60
2023-05-19T14:41:34.634Z,43.49
2023-05-19T14:44:19.491Z,42.00
2023-05-19T14:47:04.379Z,44.53
2023-05-19T14:49:49.271Z,43.47
2023-05-19T14:52:34.023Z,43.99
2023-05-19T14:55:18.791Z,43.21
2023-05-19T14:58:07.917Z,40.52
2023-05-19T15:01:01.043Z,40.57
2023-05-19T15:03:45.880Z,42.03
2023-05-19T15:06:30.826Z,41.69
2023-05-19T15:09:15.835Z,40.46
2023-05-19T15:12:00.620Z,40.66
2023-05-19T15:14:45.426Z,41.91
2023-05-19T15:17:30.310Z,43.27
2023-05-19T15:20:15.121Z,46.15
2023-05-19T15:22:59.932Z,43.89
2023-05-19T15:25:44.940Z,45.56
2023-05-19T15:28:29.762Z,45.45
2023-05-19T15:31:14.511Z,45.59
2023-05-19T15:33:59.445Z,45.73
2023-05-19T15:36:44.462Z,48.07
2023-05-19T15:39:29.578Z,46.41
2023-05-19T15:42:14.545Z,45.70
2023-05-19T15:44:59.582Z,44.86
2023-05-19T15:47:44.418Z,44.06
2023-05-19T15:50:29.572Z,44.00
2023-05-19T15:53:14.479Z,44.36
2023-05-19T15:55:59.227Z,43.57
2023-05-19T15:58:44.110Z,44.46
2023-05-19T16:01:29.141Z,44.42
2023-05-19T16:04:14.176Z,44.54
2023-05-19T16:06:58.979Z,44.22
2023-05-19T16:09:43.996Z,43.17
2023-05-19T16:12:28.867Z,43.50
2023-05-19T16:15:13.924Z,41.78
2023-05-19T16:17:58.869Z,42.46
2023-05-19T16:20:43.589Z,44.80
2023-05-19T16:23:28.630Z,42.81
2023-05-19T16:26:13.494Z,41.63
2023-05-19T16:28:58.459Z,42.50
2023-05-19T16:31:43.455Z,43.04
2023-05-19T16:34:28.705Z,44.71
2023-05-19T16:37:15.122Z,45.15
2023-05-19T16:40:00.178Z,46.38
2023-05-19T16:42:45.084Z,44.46
2023-05-19T16:45:29.742Z,44.05
2023-05-19T16:48:14.784Z,45.97
2023-05-19T16:50:59.579Z,48.43
2023-05-19T16:53:44.472Z,46.97
2023-05-19T16:56:29.420Z,46.36
2023-05-19T16:59:14.251Z,45.05
2023-05-19T17:01:59.173Z,44.40
2023-05-19T17:04:44.151Z,44.75
2023-05-19T17:07:29.185Z,42.94
2023-05-19T17:10:13.940Z,44.32
2023-05-19T17:12:58.946Z,44.12
2023-05-19T17:15:43.826Z,43.14
2023-05-19T17:18:28.708Z,44.36
2023-05-19T17:21:13.471Z,43.69
2023-05-19T17:23:58.432Z,43.94
2023-05-19T17:26:43.190Z,44.32
2023-05-19T17:29:28.152Z,44.78
2023-05-19T17:32:13.009Z,45.81
2023-05-19T17:34:57.973Z,44.66
2023-05-19T17:37:42.942Z,44.41
2023-05-19T17:40:27.927Z,45.34
2023-05-19T17:43:12.955Z,45.33
2023-05-19T17:45:58.892Z,46.57
2023-05-19T17:48:45.601Z,46.86
2023-05-19T17:51:30.431Z,46.83
2023-05-19T17:54:15.313Z,47.12
2023-05-19T17:57:00.208Z,47.80
2023-05-19T17:59:45.039Z,48.11
2023-05-19T18:02:30.005Z,48.00
2023-05-19T18:05:14.752Z,48.25
2023-05-19T18:07:59.555Z,48.94
2023-05-19T18:10:44.377Z,48.09
2023-05-19T18:13:29.270Z,49.45
2023-05-19T18:16:14.166Z,48.80
2023-05-19T18:18:58.864Z,48.76
2023-05-19T18:21:43.788Z,48.89
2023-05-19T18:24:28.637Z,49.28
2023-05-19T18:27:13.445Z,49.26
2023-05-19T18:29:58.196Z,50.23
2023-05-19T18:32:43.089Z,49.41
2023-05-19T18:35:27.937Z,49.75
2023-05-19T18:38:12.852Z,50.30
2023-05-19T18:40:57.768Z,49.95
2023-05-19T18:43:42.563Z,50.93
2023-05-19T18:46:27.615Z,51.67
2023-05-19T18:49:12.301Z,52.25
2023-05-19T18:51:57.101Z,51.62
2023-05-19T18:54:41.844Z,51.51
2023-05-19T18:57:26.794Z,52.07
2023-05-19T19:00:11.715Z,51.40
2023-05-19T19:02:56.594Z,51.42
2023-05-19T19:05:41.515Z,51.90
2023-05-19T19:08:26.239Z,52.50
2023-05-19T19:11:11.080Z,53.27
2023-05-19T19:13:55.901Z,54.81
2023-05-19T19:16:40.935Z,56.05
2023-05-19T19:19:25.790Z,55.49
2023-05-19T19:22:10.619Z,54.27
2023-05-19T19:24:55.540Z,54.55
2023-05-19T19:27:40.478Z,54.02
2023-05-19T19:30:25.255Z,54.20
2023-05-19T19:33:10.128Z,53.79
2023-05-19T19:35:55.203Z,54.32
2023-05-19T19:38:40.084Z,53.83
2023-05-19T19:41:25.049Z,54.99
2023-05-19T19:44:09.765Z,54.66
2023-05-19T19:46:54.770Z,54.44
2023-05-19T19:49:39.429Z,54.35
2023-05-19T19:52:24.469Z,55.02
2023-05-19T19:55:09.251Z,57.59
2023-05-19T19:57:54.110Z,56.28
2023-05-19T20:00:39.099Z,55.90
2023-05-19T20:03:23.900Z,56.09
2023-05-19T20:06:08.697Z,55.31
2023-05-19T20:08:53.511Z,58.15
2023-05-19T20:11:38.491Z,60.48
2023-05-19T20:14:23.404Z,58.16
2023-05-19T20:17:08.242Z,58.60
2023-05-19T20:19:53.183Z,57.48
2023-05-19T20:22:38.058Z,57.18
2023-05-19T20:25:22.926Z,57.23
2023-05-19T20:28:07.709Z,56.91
2023-05-19T20:30:52.558Z,56.36
2023-05-19T20:33:37.363Z,56.47
2023-05-19T20:36:22.460Z,57.40
2023-05-19T20:39:07.268Z,56.27
2023-05-19T20:41:52.235Z,57.17
2023-05-19T20:44:37.063Z,56.82
2023-05-19T20:47:21.837Z,57.58
2023-05-19T20:50:06.761Z,59.35
2023-05-19T20:52:51.667Z,58.44
2023-05-19T20:55:36.592Z,58.76
2023-05-19T20:58:21.450Z,59.14
